createdAt,value
2023-05-19T00:00:01.009Z,52.61
2023-05-19T00:00:59.899Z,52.61
2023-05-19T00:02:01.032Z,52.59
2023-05-19T00:03:01.194Z,52.62
2023-05-19T00:04:00.912Z,52.62
2023-05-19T00:05:01.076Z,52.63
2023-05-19T00:05:59.868Z,52.62
2023-05-19T00:06:59.935Z,52.62
2023-05-19T00:08:00.207Z,52.62
2023-05-19T00:09:00.988Z,52.63
2023-05-19T00:10:00.837Z,52.62
2023-05-19T00:10:59.804Z,52.63
2023-05-19T00:12:00.953Z,52.62
2023-05-19T00:12:59.952Z,52.61
2023-05-19T00:13:59.980Z,52.63
2023-05-19T00:15:00.946Z,52.64
2023-05-19T00:16:00.038Z,52.61
2023-05-19T00:16:59.985Z,52.65
2023-05-19T00:17:59.892Z,52.62
2023-05-19T00:19:00.797Z,52.63
2023-05-19T00:19:59.875Z,52.65
2023-05-19T00:20:59.983Z,52.63
2023-05-19T00:21:59.865Z,52.62
2023-05-19T00:23:00.838Z,52.63
2023-05-19T00:24:00.881Z,52.63
2023-05-19T00:24:59.877Z,52.67
2023-05-19T00:25:59.793Z,52.60
2023-05-19T00:27:00.772Z,52.62
2023-05-19T00:27:59.764Z,52.61
2023-05-19T00:29:00.834Z,52.63
2023-05-19T00:29:59.902Z,52.62
2023-05-19T00:30:59.931Z,52.61
2023-05-19T00:32:00.818Z,52.65
2023-05-19T00:33:01.100Z,52.63
2023-05-19T00:33:59.972Z,52.64
2023-05-19T00:34:59.897Z,52.63
2023-05-19T00:35:59.800Z,52.66
2023-05-19T00:37:00.827Z,52.66
2023-05-19T00:38:00.763Z,52.61
2023-05-19T00:38:59.931Z,52.63
2023-05-19T00:40:00.767Z,52.66
2023-05-19T00:41:00.737Z,52.65
2023-05-19T00:41:59.796Z,52.65
2023-05-19T00:42:59.857Z,52.64
2023-05-19T00:44:00.727Z,52.64
2023-05-19T00:45:00.800Z,52.66
2023-05-19T00:45:59.857Z,52.65
2023-05-19T00:46:59.998Z,52.67
2023-05-19T00:47:59.840Z,52.67
2023-05-19T00:48:59.976Z,52.67
2023-05-19T00:49:59.747Z,52.68
2023-05-19T00:51:00.782Z,52.64
2023-05-19T00:51:59.706Z,52.62
2023-05-19T00:53:00.806Z,52.66
2023-05-19T00:54:00.751Z,52.62
2023-05-19T00:54:59.758Z,52.65
2023-05-19T00:55:59.932Z,52.64
2023-05-19T00:56:59.957Z,52.64
2023-05-19T00:58:00.744Z,52.66
2023-05-19T00:58:59.712Z,52.65
2023-05-19T01:00:00.764Z,52.64
2023-05-19T01:01:00.922Z,52.66
2023-05-19T01:01:59.740Z,52.66
2023-05-19T01:03:00.801Z,52.65
2023-05-19T01:04:00.216Z,52.67
2023-05-19T01:04:59.775Z,52.63
2023-05-19T01:05:59.694Z,52.67
2023-05-19T01:07:00.928Z,52.67
2023-05-19T01:07:59.818Z,52.68
2023-05-19T01:09:00.701Z,52.67
2023-05-19T01:09:59.753Z,52.66
2023-05-19T01:10:59.722Z,52.68
2023-05-19T01:11:59.715Z,52.67
2023-05-19T01:12:59.959Z,52.65
2023-05-19T01:13:59.716Z,52.63
2023-05-19T01:14:59.949Z,52.65
2023-05-19T01:16:00.901Z,52.66
2023-05-19T01:17:00.969Z,52.67
2023-05-19T01:17:59.806Z,52.67
2023-05-19T01:19:00.718Z,52.68
2023-05-19T01:19:59.706Z,52.67
2023-05-19T01:20:59.699Z,52.70
2023-05-19T01:21:59.701Z,52.66
2023-05-19T01:22:59.715Z,52.67
2023-05-19T01:24:00.943Z,52.65
2023-05-19T01:24:59.859Z,52.69
2023-05-19T01:26:00.749Z,52.67
2023-05-19T01:27:00.710Z,52.68
2023-05-19T01:28:00.851Z,52.67
2023-05-19T01:28:59.957Z,52.65
2023-05-19T01:29:59.774Z,52.66
2023-05-19T01:30:59.726Z,52.71
2023-05-19T01:32:00.780Z,52.68
2023-05-19T01:32:59.921Z,52.68
2023-05-19T01:34:00.914Z,52.71
2023-05-19T01:34:59.706Z,52.67
2023-05-19T01:35:59.867Z,52.67
2023-05-19T01:36:59.710Z,52.69
2023-05-19T01:38:01.042Z,52.67
2023-05-19T01:39:00.884Z,52.66
2023-05-19T01:40:00.846Z,52.67
2023-05-19T01:40:59.734Z,52.68
2023-05-19T01:41:59.820Z,52.67
2023-05-19T01:42:59.710Z,52.67
2023-05-19T01:44:00.859Z,52.65
2023-05-19T01:45:00.698Z,52.65
2023-05-19T01:46:00.930Z,52.69
2023-05-19T01:46:59.712Z,52.67
2023-05-19T01:48:00.733Z,52.68
2023-05-19T01:48:59.854Z,52.64
2023-05-19T01:50:00.920Z,52.66
2023-05-19T01:50:59.699Z,52.67
2023-05-19T01:51:59.751Z,52.66
2023-05-19T01:52:59.700Z,52.66
2023-05-19T01:54:00.732Z,52.67
2023-05-19T01:54:59.722Z,52.68
2023-05-19T01:55:59.791Z,52.68
2023-05-19T01:56:59.724Z,52.69
2023-05-19T01:58:01.038Z,52.69
2023-05-19T01:58:59.715Z,52.63
2023-05-19T02:00:00.984Z,52.68
2023-05-19T02:00:59.956Z,52.67
2023-05-19T02:02:00.862Z,52.67
2023-05-19T02:03:01.019Z,52.66
2023-05-19T02:04:00.001Z,52.69
2023-05-19T02:05:00.956Z,52.66
2023-05-19T02:05:59.898Z,52.67
2023-05-19T02:06:59.924Z,52.65
2023-05-19T02:08:00.837Z,52.70
2023-05-19T02:09:00.832Z,52.65
2023-05-19T02:09:59.915Z,52.68
2023-05-19T02:10:59.795Z,52.66
2023-05-19T02:11:59.760Z,52.69
2023-05-19T02:12:59.796Z,52.68
2023-05-19T02:14:00.796Z,52.68
2023-05-19T02:14:59.884Z,52.66
2023-05-19T02:16:00.761Z,52.67
2023-05-19T02:17:00.008Z,52.68
2023-05-19T02:18:00.000Z,52.67
2023-05-19T02:19:00.904Z,52.68
2023-05-19T02:19:59.761Z,52.66
2023-05-19T02:20:59.769Z,52.69
2023-05-19T02:22:00.007Z,52.68
2023-05-19T02:22:59.855Z,52.69
2023-05-19T02:24:00.976Z,52.67
2023-05-19T02:25:00.790Z,52.67
2023-05-19T02:25:59.878Z,52.67
2023-05-19T02:27:01.000Z,52.70
2023-05-19T02:27:59.898Z,52.69
2023-05-19T02:29:00.588Z,52.68
2023-05-19T02:30:00.122Z,52.68
2023-05-19T02:30:59.868Z,52.68
2023-05-19T02:32:00.239Z,52.68
2023-05-19T02:32:59.937Z,52.69
2023-05-19T02:34:00.828Z,52.68
2023-05-19T02:35:00.851Z,52.67
2023-05-19T02:36:01.077Z,52.66
2023-05-19T02:36:59.939Z,52.67
2023-05-19T02:37:59.918Z,52.67
2023-05-19T02:38:59.936Z,52.67
2023-05-19T02:40:01.038Z,52.67
2023-05-19T02:41:00.860Z,52.66
2023-05-19T02:42:00.894Z,52.70
2023-05-19T02:42:59.894Z,52.68
2023-05-19T02:43:59.891Z,52.68
2023-05-19T02:44:59.880Z,52.67
2023-05-19T02:46:00.008Z,52.68
2023-05-19T02:47:00.140Z,52.68
2023-05-19T02:48:00.055Z,52.69
2023-05-19T02:49:00.029Z,52.68
2023-05-19T02:50:00.886Z,52.70
2023-05-19T02:50:59.932Z,52.67
2023-05-19T02:52:01.114Z,52.70
2023-05-19T02:53:00.026Z,52.70
2023-05-19T02:54:00.934Z,52.68
2023-05-19T02:55:00.976Z,52.67
2023-05-19T02:56:00.894Z,52.68
2023-05-19T02:57:00.910Z,52.68
2023-05-19T02:58:00.907Z,52.69
2023-05-19T02:59:00.910Z,52.67
2023-05-19T03:00:01.081Z,52.67
2023-05-19T03:00:59.922Z,52.69
2023-05-19T03:02:00.331Z,52.68
2023-05-19T03:03:00.064Z,52.68
2023-05-19T03:04:00.113Z,52.70
2023-05-19T03:05:01.262Z,52.67
2023-05-19T03:06:01.157Z,52.67
2023-05-19T03:07:01.111Z,52.67
2023-05-19T03:08:01.212Z,52.66
2023-05-19T03:08:59.989Z,52.67
2023-05-19T03:10:01.085Z,52.66
2023-05-19T03:11:01.260Z,52.68
2023-05-19T03:12:00.004Z,52.65
2023-05-19T03:13:01.181Z,52.70
2023-05-19T03:14:01.018Z,52.68
2023-05-19T03:15:00.037Z,52.69
2023-05-19T03:16:00.148Z,52.66
2023-05-19T03:17:00.183Z,52.70
2023-05-19T03:18:01.231Z,52.67
2023-05-19T03:19:01.192Z,52.68
2023-05-19T03:20:00.232Z,52.67
2023-05-19T03:21:00.131Z,52.66
2023-05-19T03:22:00.258Z,52.66
2023-05-19T03:23:00.113Z,52.66
2023-05-19T03:24:00.319Z,52.67
2023-05-19T03:25:01.345Z,52.68
2023-05-19T03:26:01.191Z,52.65
2023-05-19T03:27:01.125Z,52.66
2023-05-19T03:28:00.468Z,52.66
2023-05-19T03:29:00.167Z,52.68
2023-05-19T03:30:01.294Z,52.68
2023-05-19T03:31:01.347Z,52.67
2023-05-19T03:32:01.343Z,52.67
2023-05-19T03:33:01.466Z,52.66
2023-05-19T03:34:00.266Z,52.68
2023-05-19T03:35:01.163Z,52.66
2023-05-19T03:36:01.371Z,52.65
2023-05-19T03:37:00.402Z,52.65
2023-05-19T03:38:01.277Z,52.67
2023-05-19T03:39:00.333Z,52.68
2023-05-19T03:40:00.305Z,52.68
2023-05-19T03:41:01.470Z,52.65
2023-05-19T03:42:00.256Z,52.63
2023-05-19T03:43:01.291Z,52.65
2023-05-19T03:44:01.303Z,52.66
2023-05-19T03:45:00.247Z,52.67
2023-05-19T03:46:01.340Z,52.66
2023-05-19T03:47:01.439Z,52.65
2023-05-19T03:48:01.342Z,52.66
2023-05-19T03:49:01.412Z,52.66
2023-05-19T03:50:00.240Z,52.67
2023-05-19T03:51:01.371Z,52.66
2023-05-19T03:52:01.364Z,52.69
2023-05-19T03:53:00.395Z,52.65
2023-05-19T03:54:01.383Z,52.65
2023-05-19T03:55:00.280Z,52.66
2023-05-19T03:56:01.346Z,52.68
2023-05-19T03:57:00.308Z,52.66
2023-05-19T03:58:00.364Z,52.66
2023-05-19T03:59:00.345Z,52.65
2023-05-19T04:00:00.389Z,52.66
2023-05-19T04:01:01.363Z,52.68
2023-05-19T04:02:01.414Z,52.68
2023-05-19T04:03:01.508Z,52.66
2023-05-19T04:04:01.450Z,52.67
2023-05-19T04:05:00.419Z,52.67
2023-05-19T04:06:01.437Z,52.66
2023-05-19T04:07:01.598Z,52.67
2023-05-19T04:08:00.441Z,52.65
2023-05-19T04:09:00.463Z,52.64
2023-05-19T04:10:01.491Z,52.65
2023-05-19T04:11:00.502Z,52.69
2023-05-19T04:12:01.483Z,52.66
2023-05-19T04:13:01.640Z,52.65
2023-05-19T04:14:01.529Z,52.65
2023-05-19T04:15:01.525Z,52.66
2023-05-19T04:16:01.558Z,52.65
2023-05-19T04:17:00.526Z,52.67
2023-05-19T04:18:00.584Z,52.65
2023-05-19T04:19:01.609Z,52.67
2023-05-19T04:20:01.553Z,52.66
2023-05-19T04:21:00.554Z,52.66
2023-05-19T04:22:01.563Z,52.67
2023-05-19T04:23:00.564Z,52.62
2023-05-19T04:24:00.577Z,52.65
2023-05-19T04:25:01.578Z,52.66
2023-05-19T04:26:01.595Z,52.68
2023-05-19T04:27:01.584Z,52.63
2023-05-19T04:28:01.594Z,52.65
2023-05-19T04:29:01.610Z,52.66
2023-05-19T04:30:01.655Z,52.65
2023-05-19T04:31:01.678Z,52.62
2023-05-19T04:32:00.666Z,52.64
2023-05-19T04:33:00.714Z,52.65
2023-05-19T04:34:00.659Z,52.63
2023-05-19T04:35:01.673Z,52.62
2023-05-19T04:36:00.683Z,52.63
2023-05-19T04:37:01.679Z,52.65
2023-05-19T04:38:01.715Z,52.64
2023-05-19T04:39:01.711Z,52.65
2023-05-19T04:40:01.696Z,52.65
2023-05-19T04:41:00.727Z,52.68
2023-05-19T04:42:01.718Z,52.65
2023-05-19T04:43:01.724Z,52.63
2023-05-19T04:44:01.755Z,52.66
2023-05-19T04:45:01.753Z,52.64
2023-05-19T04:46:01.792Z,52.64
2023-05-19T04:47:00.802Z,52.64
2023-05-19T04:48:01.831Z,52.65
2023-05-19T04:49:01.770Z,52.65
2023-05-19T04:50:00.858Z,52.62
2023-05-19T04:51:00.793Z,52.63
2023-05-19T04:52:00.777Z,52.65
2023-05-19T04:53:01.805Z,52.66
2023-05-19T04:54:00.793Z,52.61
2023-05-19T04:55:00.805Z,52.61
2023-05-19T04:56:01.806Z,52.61
2023-05-19T04:57:01.815Z,52.62
2023-05-19T04:58:01.827Z,52.64
2023-05-19T04:59:00.850Z,52.64
2023-05-19T05:00:00.846Z,52.63
2023-05-19T05:01:01.857Z,52.65
2023-05-19T05:02:01.937Z,52.59
2023-05-19T05:03:01.910Z,52.64
2023-05-19T05:04:01.896Z,52.65
2023-05-19T05:05:01.882Z,52.61
2023-05-19T05:06:01.911Z,52.61
2023-05-19T05:07:01.903Z,52.62
2023-05-19T05:08:00.905Z,52.62
2023-05-19T05:09:01.912Z,52.61
2023-05-19T05:10:01.085Z,52.62
2023-05-19T05:11:01.933Z,52.61
2023-05-19T05:12:00.951Z,52.63
2023-05-19T05:13:02.009Z,52.57
2023-05-19T05:14:00.998Z,52.61
2023-05-19T05:15:02.063Z,52.59
2023-05-19T05:16:02.057Z,52.62
2023-05-19T05:17:01.007Z,52.57
2023-05-19T05:18:02.139Z,52.57
2023-05-19T05:19:01.104Z,52.61
2023-05-19T05:20:02.041Z,52.58
2023-05-19T05:21:01.055Z,52.60
2023-05-19T05:22:02.151Z,52.55
2023-05-19T05:23:01.082Z,52.59
2023-05-19T05:24:02.088Z,52.57
2023-05-19T05:25:01.091Z,52.57
2023-05-19T05:26:02.183Z,52.60
2023-05-19T05:27:01.113Z,52.55
2023-05-19T05:28:01.108Z,52.57
2023-05-19T05:29:01.115Z,52.56
2023-05-19T05:30:01.121Z,52.55
2023-05-19T05:31:02.131Z,52.57
2023-05-19T05:32:02.170Z,52.55
2023-05-19T05:33:01.205Z,52.54
2023-05-19T05:34:02.341Z,52.55
2023-05-19T05:35:02.140Z,52.55
2023-05-19T05:36:02.156Z,52.54
2023-05-19T05:37:01.165Z,52.53
2023-05-19T05:38:02.152Z,52.55
2023-05-19T05:39:01.168Z,52.53
2023-05-19T05:40:02.324Z,52.51
2023-05-19T05:41:01.155Z,52.56
2023-05-19T05:42:02.166Z,52.52
2023-05-19T05:43:01.178Z,52.54
2023-05-19T05:44:01.185Z,52.54
2023-05-19T05:45:01.263Z,52.52
2023-05-19T05:46:02.219Z,52.48
2023-05-19T05:47:01.191Z,52.54
2023-05-19T05:48:02.402Z,52.49
2023-05-19T05:49:01.218Z,52.50
2023-05-19T05:50:01.256Z,52.49
2023-05-19T05:51:02.208Z,52.46
2023-05-19T05:52:06.211Z,52.47
2023-05-19T05:53:01.367Z,52.47
2023-05-19T05:54:01.537Z,52.47
2023-05-19T05:55:01.401Z,52.50
2023-05-19T05:56:02.433Z,52.46
2023-05-19T05:57:01.504Z,52.47
2023-05-19T05:58:02.432Z,52.47
2023-05-19T05:59:02.413Z,52.46
2023-05-19T06:00:02.469Z,52.46
2023-05-19T06:01:01.428Z,52.44
2023-05-19T06:02:02.498Z,52.45
2023-05-19T06:03:01.492Z,52.42
2023-05-19T06:04:01.445Z,52.41
2023-05-19T06:05:01.467Z,52.40
2023-05-19T06:06:02.507Z,52.42
2023-05-19T06:07:01.458Z,52.41
2023-05-19T06:08:02.524Z,52.39
2023-05-19T06:09:01.482Z,52.37
2023-05-19T06:10:02.462Z,52.37
2023-05-19T06:11:02.446Z,52.39
2023-05-19T06:12:02.488Z,52.37
2023-05-19T06:13:02.490Z,52.31
2023-05-19T06:14:02.465Z,52.36
2023-05-19T06:15:02.599Z,52.33
2023-05-19T06:16:02.475Z,52.34
2023-05-19T06:17:01.442Z,52.32
2023-05-19T06:18:01.544Z,52.30
2023-05-19T06:19:01.518Z,52.31
2023-05-19T06:20:01.433Z,52.31
2023-05-19T06:21:02.433Z,52.30
2023-05-19T06:22:02.444Z,52.30
2023-05-19T06:23:02.420Z,52.30
2023-05-19T06:24:02.428Z,52.29
2023-05-19T06:25:01.412Z,52.29
2023-05-19T06:26:02.415Z,52.26
2023-05-19T06:27:02.441Z,52.27
2023-05-19T06:28:01.440Z,52.27
2023-05-19T06:29:02.403Z,52.25
2023-05-19T06:30:01.381Z,52.22
2023-05-19T06:31:02.391Z,52.21
2023-05-19T06:32:02.372Z,52.21
2023-05-19T06:33:02.499Z,52.25
2023-05-19T06:34:01.357Z,52.21
2023-05-19T06:35:02.355Z,52.18
2023-05-19T06:36:01.353Z,52.20
2023-05-19T06:37:02.568Z,52.16
2023-05-19T06:38:01.673Z,52.16
2023-05-19T06:39:02.820Z,52.13
2023-05-19T06:40:02.523Z,52.12
2023-05-19T06:41:01.357Z,52.12
2023-05-19T06:42:02.412Z,52.06
2023-05-19T06:43:02.367Z,52.04
2023-05-19T06:44:01.417Z,52.05
2023-05-19T06:45:01.527Z,52.09
2023-05-19T06:46:01.453Z,52.03
2023-05-19T06:47:01.445Z,52.06
2023-05-19T06:48:01.498Z,52.01
2023-05-19T06:49:02.376Z,51.98
2023-05-19T06:50:02.372Z,52.02
2023-05-19T06:51:01.383Z,52.03
2023-05-19T06:52:01.394Z,52.03
2023-05-19T06:53:01.402Z,52.01
2023-05-19T06:54:01.432Z,52.01
2023-05-19T06:55:02.504Z,52.01
2023-05-19T06:56:01.422Z,52.01
2023-05-19T06:57:02.498Z,52.00
2023-05-19T06:58:01.434Z,52.02
2023-05-19T06:59:02.604Z,52.03
2023-05-19T07:00:01.447Z,52.01
2023-05-19T07:01:02.654Z,52.01
2023-05-19T07:02:01.523Z,52.02
2023-05-19T07:03:01.545Z,52.00
2023-05-19T07:04:02.509Z,51.97
2023-05-19T07:05:01.488Z,52.00
2023-05-19T07:06:01.486Z,51.98
2023-05-19T07:07:02.517Z,51.98
2023-05-19T07:08:01.507Z,51.96
2023-05-19T07:09:01.570Z,51.95
2023-05-19T07:10:01.563Z,51.95
2023-05-19T07:11:02.525Z,51.94
2023-05-19T07:12:02.585Z,51.95
2023-05-19T07:13:02.536Z,51.95
2023-05-19T07:14:02.589Z,51.95
2023-05-19T07:15:01.551Z,51.91
2023-05-19T07:16:02.621Z,51.93
2023-05-19T07:17:02.547Z,51.90
2023-05-19T07:18:02.659Z,51.87
2023-05-19T07:19:02.692Z,51.89
2023-05-19T07:20:02.677Z,51.82
2023-05-19T07:21:01.606Z,51.86
2023-05-19T07:22:02.561Z,51.80
2023-05-19T07:23:01.714Z,51.77
2023-05-19T07:24:02.595Z,51.74
2023-05-19T07:25:01.574Z,51.75
2023-05-19T07:26:02.694Z,51.71
2023-05-19T07:27:01.707Z,51.73
2023-05-19T07:28:01.607Z,51.70
2023-05-19T07:29:01.546Z,51.68
2023-05-19T07:30:01.586Z,51.62
2023-05-19T07:31:02.551Z,51.61
2023-05-19T07:32:01.574Z,51.59
2023-05-19T07:33:02.632Z,51.62
2023-05-19T07:34:02.532Z,51.48
2023-05-19T07:35:01.595Z,51.51
2023-05-19T07:36:01.591Z,51.52
2023-05-19T07:37:02.558Z,51.52
2023-05-19T07:38:01.534Z,51.49
2023-05-19T07:39:01.592Z,51.46
2023-05-19T07:40:02.703Z,51.44
2023-05-19T07:41:02.703Z,51.38
2023-05-19T07:42:01.655Z,51.44
2023-05-19T07:43:01.637Z,51.38
2023-05-19T07:44:01.498Z,51.31
2023-05-19T07:45:02.522Z,51.31
2023-05-19T07:46:01.527Z,51.27
2023-05-19T07:47:02.517Z,51.22
2023-05-19T07:48:01.546Z,51.30
2023-05-19T07:49:02.543Z,51.25
2023-05-19T07:50:01.501Z,51.21
2023-05-19T07:51:02.484Z,51.25
2023-05-19T07:52:02.576Z,51.21
2023-05-19T07:53:02.469Z,51.26
2023-05-19T07:54:01.483Z,51.29
2023-05-19T07:55:02.524Z,51.25
2023-05-19T07:56:01.473Z,51.28
2023-05-19T07:57:02.479Z,51.23
2023-05-19T07:58:02.509Z,51.23
2023-05-19T07:59:02.489Z,51.25
2023-05-19T08:00:01.481Z,51.20
2023-05-19T08:01:01.495Z,51.13
2023-05-19T08:02:01.655Z,51.02
2023-05-19T08:03:01.640Z,50.95
2023-05-19T08:04:01.607Z,50.84
2023-05-19T08:05:02.581Z,50.83
2023-05-19T08:06:01.643Z,50.82
2023-05-19T08:07:02.681Z,50.82
2023-05-19T08:08:02.773Z,50.84
2023-05-19T08:09:01.872Z,50.72
2023-05-19T08:10:01.863Z,50.66
2023-05-19T08:11:02.927Z,50.58
2023-05-19T08:12:03.007Z,50.48
2023-05-19T08:13:02.050Z,50.37
2023-05-19T08:14:03.174Z,50.32
2023-05-19T08:15:02.253Z,50.42
2023-05-19T08:16:02.330Z,50.40
2023-05-19T08:17:02.314Z,50.38
2023-05-19T08:18:03.395Z,50.38
2023-05-19T08:19:02.726Z,50.46
2023-05-19T08:20:02.477Z,50.44
2023-05-19T08:21:02.573Z,50.48
2023-05-19T08:22:03.670Z,50.51
2023-05-19T08:23:02.663Z,50.50
2023-05-19T08:24:03.958Z,50.47
2023-05-19T08:25:03.795Z,50.55
2023-05-19T08:26:02.907Z,50.53
2023-05-19T08:27:03.917Z,50.54
2023-05-19T08:28:04.088Z,50.51
2023-05-19T08:29:04.227Z,50.48
2023-05-19T08:30:04.099Z,50.43
2023-05-19T08:31:04.219Z,50.45
2023-05-19T08:32:04.166Z,50.44
2023-05-19T08:33:03.264Z,50.45
2023-05-19T08:34:03.329Z,50.40
2023-05-19T08:35:04.358Z,50.41
2023-05-19T08:36:03.344Z,50.35
2023-05-19T08:37:04.385Z,50.37
2023-05-19T08:38:04.441Z,50.31
2023-05-19T08:39:04.478Z,50.30
2023-05-19T08:40:04.531Z,50.28
2023-05-19T08:41:04.716Z,50.23
2023-05-19T08:42:04.636Z,50.20
2023-05-19T08:43:03.659Z,50.21
2023-05-19T08:44:04.692Z,50.17
2023-05-19T08:45:04.798Z,50.14
2023-05-19T08:46:04.826Z,50.14
2023-05-19T08:47:05.055Z,50.08
2023-05-19T08:48:05.029Z,50.06
2023-05-19T08:49:04.911Z,49.97
2023-05-19T08:50:04.055Z,49.91
2023-05-19T08:51:03.985Z,49.85
2023-05-19T08:52:04.145Z,49.78
2023-05-19T08:53:05.046Z,49.63
2023-05-19T08:54:04.056Z,49.58
2023-05-19T08:55:04.101Z,49.41
2023-05-19T08:56:05.094Z,49.25
2023-05-19T08:57:05.084Z,49.16
2023-05-19T08:58:05.119Z,49.21
2023-05-19T08:59:04.149Z,49.21
2023-05-19T09:00:05.201Z,49.16
2023-05-19T09:01:05.296Z,49.15
2023-05-19T09:02:05.357Z,49.15
2023-05-19T09:04:04.467Z,49.10
2023-05-19T09:05:05.716Z,49.06
2023-05-19T09:06:04.603Z,48.98
2023-05-19T09:07:04.636Z,48.92
2023-05-19T09:08:04.767Z,48.86
2023-05-19T09:09:04.808Z,48.80
2023-05-19T09:10:05.799Z,48.81
2023-05-19T09:11:05.854Z,48.78
2023-05-19T09:12:04.924Z,48.78
2023-05-19T09:13:06.023Z,48.73
2023-05-19T09:14:05.165Z,48.74
2023-05-19T09:15:06.196Z,48.53
2023-05-19T09:16:05.217Z,48.46
2023-05-19T09:17:05.290Z,48.56
2023-05-19T09:18:05.346Z,48.48
2023-05-19T09:19:05.356Z,48.44
2023-05-19T09:20:06.373Z,48.38
2023-05-19T09:21:05.410Z,48.33
2023-05-19T09:22:05.612Z,48.31
2023-05-19T09:23:05.528Z,48.32
2023-05-19T09:24:05.582Z,48.06
2023-05-19T09:25:05.771Z,48.16
2023-05-19T09:26:05.636Z,48.08
2023-05-19T09:27:05.703Z,48.02
2023-05-19T09:28:05.734Z,47.93
2023-05-19T09:29:05.755Z,47.91
2023-05-19T09:30:05.780Z,47.96
2023-05-19T09:31:05.816Z,48.04
2023-05-19T09:32:06.885Z,47.79
2023-05-19T09:33:06.926Z,47.83
2023-05-19T09:34:05.974Z,47.74
2023-05-19T09:35:06.971Z,47.68
2023-05-19T09:36:06.289Z,47.73
2023-05-19T09:37:07.072Z,47.70
2023-05-19T09:38:07.077Z,47.74
2023-05-19T09:39:07.312Z,47.74
2023-05-19T09:40:07.173Z,47.73
2023-05-19T09:41:06.205Z,47.56
2023-05-19T09:42:06.233Z,47.59
2023-05-19T09:43:06.265Z,47.58
2023-05-19T09:44:06.320Z,47.59
2023-05-19T09:45:07.360Z,47.48
2023-05-19T09:46:07.789Z,47.41
2023-05-19T09:47:06.471Z,47.30
2023-05-19T09:48:07.574Z,47.39
2023-05-19T09:49:06.506Z,47.39
2023-05-19T09:50:07.582Z,47.35
2023-05-19T09:51:07.619Z,47.49
2023-05-19T09:52:06.666Z,47.25
2023-05-19T09:53:07.678Z,47.19
2023-05-19T09:54:06.858Z,47.15
2023-05-19T09:55:06.758Z,47.12
2023-05-19T09:56:07.860Z,47.16
2023-05-19T09:57:08.768Z,47.11
2023-05-19T09:58:06.952Z,47.28
2023-05-19T09:59:06.949Z,47.08
2023-05-19T10:00:07.004Z,46.99
2023-05-19T10:01:07.973Z,46.89
2023-05-19T10:02:07.959Z,46.97
2023-05-19T10:03:08.022Z,47.14
2023-05-19T10:04:07.177Z,46.95
2023-05-19T10:05:07.097Z,47.09
2023-05-19T10:06:08.187Z,46.95
2023-05-19T10:07:08.175Z,47.01
2023-05-19T10:08:08.254Z,46.94
2023-05-19T10:09:07.177Z,46.94
2023-05-19T10:10:08.266Z,46.89
2023-05-19T10:11:07.231Z,46.88
2023-05-19T10:12:08.257Z,46.93
2023-05-19T10:13:08.411Z,46.83
2023-05-19T10:14:07.443Z,46.82
2023-05-19T10:15:08.339Z,46.75
2023-05-19T10:16:08.513Z,46.81
2023-05-19T10:17:07.483Z,46.81
2023-05-19T10:18:07.540Z,46.84
2023-05-19T10:19:07.480Z,46.81
2023-05-19T10:20:07.523Z,46.76
2023-05-19T10:21:08.703Z,46.77
2023-05-19T10:22:08.569Z,46.71
2023-05-19T10:23:07.520Z,46.73
2023-05-19T10:24:08.540Z,46.69
2023-05-19T10:25:08.816Z,46.65
2023-05-19T10:26:07.576Z,46.60
2023-05-19T10:27:08.624Z,46.69
2023-05-19T10:28:08.745Z,46.62
2023-05-19T10:29:08.649Z,46.61
2023-05-19T10:30:11.758Z,46.62
2023-05-19T10:31:07.718Z,46.49
2023-05-19T10:32:08.669Z,46.73
2023-05-19T10:33:08.665Z,46.61
2023-05-19T10:34:07.651Z,46.58
2023-05-19T10:35:08.634Z,46.66
2023-05-19T10:36:07.902Z,46.55
2023-05-19T10:37:07.612Z,46.42
2023-05-19T10:38:08.641Z,46.46
2023-05-19T10:39:08.681Z,46.53
2023-05-19T10:40:08.585Z,46.55
2023-05-19T10:41:07.574Z,46.51
2023-05-19T10:42:07.664Z,46.47
2023-05-19T10:43:07.628Z,46.50
2023-05-19T10:44:08.561Z,46.56
2023-05-19T10:45:08.638Z,46.47
2023-05-19T10:46:07.532Z,46.56
2023-05-19T10:47:08.792Z,46.46
2023-05-19T10:48:08.609Z,46.58
2023-05-19T10:49:08.536Z,46.60
2023-05-19T10:50:08.659Z,46.59
2023-05-19T10:51:08.630Z,46.64
2023-05-19T10:52:07.535Z,46.65
2023-05-19T10:53:07.555Z,46.60
2023-05-19T10:54:07.517Z,46.61
2023-05-19T10:55:08.609Z,46.64
2023-05-19T10:56:07.679Z,46.63
2023-05-19T10:57:07.470Z,46.79
2023-05-19T10:58:07.649Z,46.67
2023-05-19T10:59:07.437Z,46.64
2023-05-19T11:00:07.455Z,46.77
2023-05-19T11:01:07.485Z,46.74
2023-05-19T11:02:07.506Z,46.67
2023-05-19T11:03:07.462Z,46.71
2023-05-19T11:04:08.469Z,46.69
2023-05-19T11:05:08.566Z,46.76
2023-05-19T11:06:08.498Z,46.78
2023-05-19T11:07:08.616Z,46.80
2023-05-19T11:08:08.688Z,46.81
2023-05-19T11:09:07.824Z,46.84
2023-05-19T11:10:08.727Z,46.80
2023-05-19T11:11:07.582Z,46.78
2023-05-19T11:12:07.614Z,46.81
2023-05-19T11:13:07.645Z,46.89
2023-05-19T11:14:08.683Z,46.91
2023-05-19T11:15:07.851Z,46.91
2023-05-19T11:16:07.820Z,46.86
2023-05-19T11:17:08.714Z,46.92
2023-05-19T11:18:08.863Z,46.89
2023-05-19T11:19:08.728Z,46.86
2023-05-19T11:20:07.748Z,46.91
2023-05-19T11:21:07.971Z,46.90
2023-05-19T11:22:08.779Z,46.91
2023-05-19T11:23:08.910Z,46.93
2023-05-19T11:24:07.879Z,46.93
2023-05-19T11:25:07.806Z,46.91
2023-05-19T11:26:08.884Z,46.95
2023-05-19T11:27:07.796Z,46.98
2023-05-19T11:28:07.800Z,46.98
2023-05-19T11:29:08.811Z,46.97
2023-05-19T11:30:08.838Z,47.00
2023-05-19T11:31:07.818Z,47.00
2023-05-19T11:32:08.965Z,47.02
2023-05-19T11:33:08.854Z,47.00
2023-05-19T11:34:08.805Z,47.03
2023-05-19T11:35:07.828Z,46.96
2023-05-19T11:36:07.863Z,47.00
2023-05-19T11:37:08.066Z,47.03
2023-05-19T11:38:07.915Z,46.96
2023-05-19T11:39:07.789Z,47.01
2023-05-19T11:40:08.792Z,47.02
2023-05-19T11:41:08.994Z,47.04
2023-05-19T11:42:07.976Z,47.05
2023-05-19T11:43:07.800Z,47.06
2023-05-19T11:44:08.813Z,47.04
2023-05-19T11:45:08.805Z,47.05
2023-05-19T11:46:08.868Z,47.05
2023-05-19T11:47:07.818Z,47.07
2023-05-19T11:48:07.927Z,47.08
2023-05-19T11:49:08.002Z,47.07
2023-05-19T11:50:07.936Z,47.09
2023-05-19T11:51:07.890Z,47.07
2023-05-19T11:52:07.997Z,47.04
2023-05-19T11:53:08.800Z,47.03
2023-05-19T11:54:08.942Z,47.08
2023-05-19T11:55:08.868Z,47.07
2023-05-19T11:56:07.811Z,47.09
2023-05-19T11:57:08.841Z,47.09
2023-05-19T11:58:07.866Z,47.06
2023-05-19T11:59:07.797Z,47.13
2023-05-19T12:00:08.885Z,47.09
2023-05-19T12:01:07.802Z,47.07
2023-05-19T12:02:08.931Z,47.09
2023-05-19T12:03:09.263Z,47.08
2023-05-19T12:04:07.875Z,47.09
2023-05-19T12:05:08.900Z,47.09
2023-05-19T12:06:08.023Z,47.10
2023-05-19T12:07:08.799Z,47.15
2023-05-19T12:08:09.011Z,47.14
2023-05-19T12:09:07.836Z,47.16
2023-05-19T12:10:08.802Z,47.17
2023-05-19T12:11:08.109Z,47.18
2023-05-19T12:12:07.964Z,47.16
2023-05-19T12:13:07.804Z,47.20
2023-05-19T12:14:08.838Z,47.16
2023-05-19T12:15:07.876Z,47.20
2023-05-19T12:16:09.100Z,47.15
2023-05-19T12:17:08.777Z,47.20
2023-05-19T12:18:08.012Z,47.16
2023-05-19T12:19:08.827Z,47.18
2023-05-19T12:20:07.831Z,47.16
2023-05-19T12:21:08.961Z,47.18
2023-05-19T12:22:08.944Z,47.16
2023-05-19T12:23:07.961Z,47.21
2023-05-19T12:24:07.969Z,47.26
2023-05-19T12:25:07.912Z,47.22
2023-05-19T12:26:08.047Z,47.20
2023-05-19T12:27:08.847Z,47.20
2023-05-19T12:28:08.815Z,47.22
2023-05-19T12:29:07.834Z,47.21
2023-05-19T12:30:07.894Z,47.27
2023-05-19T12:31:09.150Z,47.23
2023-05-19T12:32:07.917Z,47.22
2023-05-19T12:33:07.843Z,47.31
2023-05-19T12:34:08.783Z,47.27
2023-05-19T12:35:07.794Z,47.25
2023-05-19T12:36:08.812Z,47.28
2023-05-19T12:37:07.808Z,47.31
2023-05-19T12:38:07.945Z,47.26
2023-05-19T12:39:07.810Z,47.28
2023-05-19T12:40:08.867Z,47.25
2023-05-19T12:41:07.976Z,47.32
2023-05-19T12:42:09.056Z,47.30
2023-05-19T12:43:08.920Z,47.32
2023-05-19T12:44:08.932Z,47.35
2023-05-19T12:45:08.946Z,47.35
2023-05-19T12:46:07.882Z,47.38
2023-05-19T12:47:07.915Z,47.37
2023-05-19T12:48:07.812Z,47.36
2023-05-19T12:49:08.962Z,47.36
2023-05-19T12:50:09.077Z,47.39
2023-05-19T12:51:08.109Z,47.40
2023-05-19T12:52:12.760Z,47.38
2023-05-19T12:53:07.933Z,47.32